Flight Track Log - Related Links

Times and Time Zones

All times are in EDT time to prevent confusion due to time zone crossing. See the AAL963 flight status page for this flight to view local times or setup timezone preferences in your user account.

Time Position Orientation Groundspeed Altitude Reporting Facility
EDT Latitude Longitude Course Direction KTS MPH feet Rate Location/Type
Mon 12:04:00 AM 32.3559 -96.3427 133° Southeast  Level Estimated
Mon 12:04:02 AM 32.8200 -96.8490 133° Southeast 354 407 10,700  Level FlightAware ADS-B
Mon 12:04:42 AM 32.7500 -96.8450 177° South 387 445 11,400 1,694 Climbing FlightAware ADS-B
Mon 12:05:27 AM 32.6660 -96.8400 177° South 401 461 13,100 2,329 Climbing FlightAware ADS-B
Mon 12:06:07 AM 32.5940 -96.8350 177° South 405 466 14,700 2,400 Climbing FlightAware ADS-B
Mon 12:06:47 AM 32.5200 -96.8300 177° South 410 472 16,300 2,259 Climbing FlightAware ADS-B
Mon 12:07:32 AM 32.4310 -96.8250 177° South 419 482 17,900 2,118 Climbing FlightAware ADS-B
Mon 12:08:12 AM 32.3530 -96.8200 177° South 427 491 19,300 2,125 Climbing FlightAware ADS-B
Mon 12:08:20 AM 32.3317 -96.8185 177° South 432 497 19,600 1,800 Climbing FlightAware ADS-B
Mon 12:08:42 AM 32.2890 -96.8130 174° South 443 510 20,200 1,731 Climbing FlightAware ADS-B
Mon 12:09:12 AM 32.2270 -96.7944 166° South 455 524 21,100 1,619 Climbing FlightAware ADS-B
Mon 12:09:45 AM 32.1596 -96.7688 162° South 466 536 21,900 1,688 Climbing FlightAware ADS-B
Mon 12:10:16 AM 32.0960 -96.7439 162° South 469 540 22,900 1,909 Climbing FlightAware ADS-B
Mon 12:10:51 AM 32.0246 -96.7162 162° South 471 542 24,000 1,846 Climbing FlightAware ADS-B
Mon 12:11:21 AM 31.9610 -96.6921 162° South 475 547 24,900 1,574 Climbing FlightAware ADS-B
Mon 12:11:52 AM 31.8962 -96.6675 162° South 480 552 25,600 1,452 Climbing FlightAware ADS-B
Mon 12:12:23 AM 31.8306 -96.6419 162° South 484 557 26,400 1,452 Climbing FlightAware ADS-B
Mon 12:12:54 AM 31.7648 -96.6146 161° South 489 563 27,100 1,279 Climbing FlightAware ADS-B
Mon 12:13:24 AM 31.6998 -96.5878 161° South 495 570 27,700 1,100 Climbing FlightAware ADS-B
Mon 12:13:54 AM 31.6342 -96.5608 161° South 500 575 28,200 1,082 Climbing FlightAware ADS-B
Mon 12:14:25 AM 31.5669 -96.5335 161° South 505 581 28,800 1,180 Climbing FlightAware ADS-B
Mon 12:14:55 AM 31.4999 -96.5063 161° South 509 586 29,400 1,100 Climbing FlightAware ADS-B
Mon 12:15:25 AM 31.4320 -96.4807 162° South 511 588 29,900 1,082 Climbing FlightAware ADS-B
Mon 12:15:56 AM 31.3631 -96.4555 163° South 513 590 30,500 984 Climbing FlightAware ADS-B
Mon 12:16:26 AM 31.2936 -96.4299 163° South 518 596 30,900 808 Climbing FlightAware ADS-B
Mon 12:16:48 AM 31.2430 -96.4111 162° South 525 604 31,200 774 Climbing FlightAware ADS-B
Mon 12:16:57 AM 31.2220 -96.4020 160° South 529 609 31,300 750 Climbing FlightAware ADS-B
Mon 12:17:12 AM 31.1892 -96.3842 155° Southeast 533 613 31,500 968 Climbing FlightAware ADS-B
Mon 12:17:28 AM 31.1566 -96.3611 149° Southeast 537 618 31,800 1,241 Climbing FlightAware ADS-B
Mon 12:17:41 AM 31.1292 -96.3365 142° Southeast 539 620 32,100 1,440 Climbing FlightAware ADS-B
Mon 12:17:53 AM 31.1077 -96.3131 137° Southeast 539 620 32,400 1,286 Climbing FlightAware ADS-B
Mon 12:18:23 AM 31.0547 -96.2511 135° Southeast 537 618 33,000 1,082 Climbing FlightAware ADS-B
Mon 12:18:54 AM 31.0016 -96.1883 135° Southeast 540 621 33,500 885 Climbing FlightAware ADS-B
Mon 12:19:24 AM 30.9486 -96.1257 135° Southeast 543 625 33,900 787 Climbing FlightAware ADS-B
Mon 12:19:55 AM 30.8938 -96.0612 135° Southeast 544 626 34,300 689 Climbing FlightAware ADS-B
Mon 12:20:25 AM 30.8402 -95.9982 135° Southeast 547 629 34,600 600 Climbing FlightAware ADS-B
Mon 12:20:55 AM 30.7858 -95.9347 135° Southeast 552 635 34,900 393 Climbing FlightAware ADS-B
Mon 12:21:26 AM 30.7311 -95.8708 135° Southeast 555 639 35,000 98 Climbing FlightAware ADS-B
Mon 12:21:56 AM 30.6761 -95.8067 135° Southeast 554 638 35,000  Level FlightAware ADS-B
Mon 12:22:27 AM 30.6207 -95.7423 135° Southeast 554 638 35,000  Level FlightAware ADS-B
Mon 12:22:57 AM 30.5662 -95.6791 135° Southeast 554 638 35,000  Level FlightAware ADS-B
Mon 12:23:27 AM 30.5119 -95.6162 135° Southeast 554 638 35,000  Level FlightAware ADS-B
Mon 12:23:57 AM 30.4571 -95.5529 135° Southeast 554 638 35,000  Level FlightAware ADS-B
Mon 12:24:28 AM 30.4013 -95.4884 135° Southeast 554 638 35,000  Level FlightAware ADS-B
Mon 12:24:58 AM 30.3464 -95.4252 135° Southeast 555 639 35,000  Level FlightAware ADS-B
Mon 12:25:29 AM 30.2904 -95.3608 135° Southeast 555 639 35,000  Level FlightAware ADS-B
Mon 12:25:59 AM 30.2355 -95.2978 135° Southeast 556 640 35,000  Level FlightAware ADS-B
Mon 12:26:29 AM 30.1806 -95.2348 135° Southeast 556 640 35,000  Level FlightAware ADS-B
Mon 12:26:59 AM 30.1256 -95.1719 135° Southeast 556 640 35,000  Level FlightAware ADS-B
Mon 12:27:29 AM 30.0706 -95.1090 135° Southeast 556 640 35,000  Level FlightAware ADS-B
Mon 12:28:00 AM 30.0153 -95.0458 135° Southeast 556 640 35,000  Level FlightAware ADS-B
Mon 12:28:30 AM 29.9602 -94.9830 135° Southeast 556 640 35,000  Level FlightAware ADS-B
Mon 12:29:00 AM 29.9049 -94.9202 135° Southeast 557 641 35,000  Level FlightAware ADS-B
Mon 12:29:30 AM 29.8501 -94.8581 135° Southeast 556 640 35,000  Level FlightAware ADS-B
Mon 12:30:00 AM 29.7951 -94.7956 135° Southeast 555 639 35,000  Level FlightAware ADS-B
Mon 12:30:30 AM 29.7397 -94.7329 135° Southeast 554 638 35,000  Level FlightAware ADS-B
Mon 12:31:00 AM 29.6843 -94.6704 136° Southeast 554 638 35,000  Level FlightAware ADS-B
Mon 12:31:31 AM 29.6291 -94.6081 136° Southeast 554 638 35,000  Level FlightAware ADS-B
Mon 12:32:01 AM 29.5737 -94.5458 136° Southeast 554 638 35,000  Level FlightAware ADS-B
Mon 12:32:31 AM 29.5185 -94.4837 136° Southeast 554 638 35,000  Level FlightAware ADS-B
Mon 12:33:01 AM 29.4632 -94.4217 136° Southeast 553 636 35,000  Level FlightAware ADS-B
Mon 12:33:32 AM 29.4081 -94.3598 136° Southeast 552 635 35,000  Level FlightAware ADS-B
Mon 12:34:02 AM 29.3522 -94.2976 136° Southeast 552 635 35,000  Level FlightAware ADS-B
Mon 12:34:32 AM 29.2969 -94.2361 136° Southeast 552 635 35,000  Level FlightAware ADS-B
Mon 12:35:02 AM 29.2418 -94.1752 136° Southeast 552 635 35,000  Level FlightAware ADS-B
Mon 12:35:32 AM 29.1866 -94.1141 136° Southeast 552 635 35,000  Level FlightAware ADS-B
Mon 12:36:42 AM 29.0710 -93.9840 135° Southeast 551 634 35,000  Level FlightAware ADS-B
Mon 12:37:22 AM 28.9900 -93.8980 137° Southeast 550 633 35,000  Level FlightAware ADS-B
Mon 12:38:07 AM 28.9200 -93.8170 135° Southeast 550 633 35,000  Level FlightAware ADS-B
Mon 12:38:47 AM 28.8590 -93.7470 135° Southeast 550 633 35,000  Level FlightAware ADS-B
Mon 12:39:27 AM 28.7980 -93.6770 135° Southeast 550 633 35,000  Level FlightAware ADS-B
Mon 12:40:07 AM 28.7360 -93.6080 136° Southeast 550 633 35,000  Level FlightAware ADS-B
Mon 12:40:57 AM 28.6600 -93.5200 135° Southeast 550 633 35,000  Level FlightAware ADS-B
Mon 12:41:37 AM 28.5990 -93.4510 135° Southeast 550 633 35,000  Level FlightAware ADS-B
Mon 12:42:17 AM 28.5380 -93.3810 135° Southeast 550 633 35,000  Level FlightAware ADS-B
Mon 12:42:57 AM 28.4760 -93.3110 135° Southeast 550 633 35,000  Level FlightAware ADS-B
Mon 12:43:37 AM 28.4150 -93.2420 135° Southeast 550 633 35,000  Level FlightAware ADS-B
Mon 12:44:27 AM 28.3390 -93.1550 135° Southeast 550 633 35,000  Level FlightAware ADS-B
Mon 12:45:07 AM 28.2780 -93.0850 135° Southeast 550 633 35,000  Level FlightAware ADS-B
Mon 12:45:47 AM 28.2160 -93.0160 136° Southeast 550 633 35,000  Level FlightAware ADS-B
Mon 12:46:27 AM 28.1550 -92.9470 135° Southeast 550 633 35,000  Level FlightAware ADS-B
Mon 12:47:07 AM 28.0940 -92.8770 135° Southeast 550 633 35,000 -73 Level FlightAware ADS-B
Mon 12:47:49 AM 27.8511 -92.6650 135° Southeast 544 626 34,900 -59 Descending Houston Center
Mon 12:48:49 AM 27.7408 -92.5486 137° Southeast 542 624 34,900 50 Level Houston Center
Mon 12:49:49 AM 27.6317 -92.4289 136° Southeast 546 628 35,000  Climbing Houston Center
Mon 12:50:49 AM 27.5214 -92.3125 137° Southeast 544 626 34,900 -50 Descending Houston Center
Mon 12:51:50 AM 27.4100 -92.1975 137° Southeast 544 626 34,900  Level Houston Center

Login

Don't have an account? Register now (free) for customized features, flight alerts, and more!